Time;durP1;ratioP1;P1;durP2;ratioP2;P2;SDS_P1;SDS_P2;PMS_P1;PMS_P2;Temp;Humidity;BMP_temperature;BMP_pressure;BME280_temperature;BME280_humidity;BME280_pressure;Samples;Min_cycle;Max_cycle;Signal;HPM_P1;HPM_P2
2022/03/18 00:01:18;;;;;;;8.87;3.40;;;8.70;99.90;;;;;;5056179;28;20033;-65
2022/03/18 00:03:43;;;;;;;9.85;3.47;;;8.70;99.90;;;;;;5056508;28;20075;-65
2022/03/18 00:06:10;;;;;;;11.73;4.28;;;8.60;99.90;;;;;;5055988;28;20022;-64
2022/03/18 00:08:35;;;;;;;12.10;3.85;;;8.60;99.90;;;;;;5056361;28;20416;-65
2022/03/18 00:11:02;;;;;;;9.83;3.30;;;8.50;99.90;;;;;;5057030;28;20058;-65
2022/03/18 00:13:27;;;;;;;6.03;3.17;;;8.50;99.90;;;;;;5056832;28;20627;-64
2022/03/18 00:15:54;;;;;;;9.87;4.10;;;8.50;99.90;;;;;;5057101;28;20033;-64
2022/03/18 00:18:20;;;;;;;10.88;3.78;;;8.50;99.90;;;;;;5055138;28;20029;-64
2022/03/18 00:20:45;;;;;;;8.47;3.80;;;8.50;99.90;;;;;;5056570;28;20423;-65
2022/03/18 00:23:13;;;;;;;10.27;4.23;;;8.50;99.90;;;;;;5055661;28;20049;-65
2022/03/18 00:25:39;;;;;;;8.38;3.85;;;8.50;99.90;;;;;;5054253;28;20469;-65
2022/03/18 00:28:04;;;;;;;7.87;3.30;;;8.50;99.90;;;;;;5055778;28;20083;-66
2022/03/18 00:30:30;;;;;;;11.40;4.50;;;8.50;99.90;;;;;;5056148;28;20060;-65
2022/03/18 00:32:55;;;;;;;15.53;3.60;;;8.50;99.90;;;;;;5055736;28;20079;-64
2022/03/18 00:35:21;;;;;;;9.43;4.03;;;8.50;99.90;;;;;;5054241;28;20090;-64
2022/03/18 00:37:46;;;;;;;9.53;3.87;;;8.40;99.90;;;;;;5055277;28;20507;-64
2022/03/18 00:40:12;;;;;;;8.70;3.77;;;8.50;99.90;;;;;;5058140;28;20029;-65
2022/03/18 00:42:38;;;;;;;9.57;3.77;;;8.50;99.90;;;;;;5061537;28;20044;-66
2022/03/18 00:45:04;;;;;;;8.65;3.55;;;8.40;99.90;;;;;;5060065;28;20469;-64
2022/03/18 00:52:59;;;;;;;14.40;4.32;;;8.40;99.90;;;;;;5055138;28;20074;-64
2022/03/18 00:55:24;;;;;;;8.33;3.50;;;8.40;99.90;;;;;;5055152;28;20025;-65
2022/03/18 00:57:50;;;;;;;6.20;3.60;;;8.40;99.90;;;;;;5054997;28;20059;-64
2022/03/18 01:00:16;;;;;;;8.32;3.65;;;8.40;99.90;;;;;;5053346;28;20474;-64
2022/03/18 01:02:42;;;;;;;8.82;3.67;;;8.40;99.90;;;;;;5054801;28;20044;-65
2022/03/18 01:05:08;;;;;;;11.57;3.70;;;8.40;99.90;;;;;;5053490;28;20017;-64
2022/03/18 01:07:34;;;;;;;12.48;4.63;;;8.30;99.90;;;;;;5054518;28;20025;-64
2022/03/18 01:09:59;;;;;;;10.43;3.67;;;8.30;99.90;;;;;;5055195;28;20040;-64
2022/03/18 01:12:26;;;;;;;5.63;3.67;;;8.30;99.90;;;;;;5054646;28;20116;-64
2022/03/18 01:14:51;;;;;;;;;;;8.30;99.90;;;;;;5055508;28;20178;-65
2022/03/18 01:17:18;;;;;;;11.43;3.88;;;8.30;99.90;;;;;;5054753;28;20377;-65
2022/03/18 01:19:43;;;;;;;12.13;3.67;;;8.20;99.90;;;;;;5054564;28;20145;-65
2022/03/18 01:22:09;;;;;;;10.63;3.78;;;8.20;99.90;;;;;;5055148;28;20151;-64
2022/03/18 01:24:38;;;;;;;6.80;3.42;;;8.20;99.90;;;;;;5054670;28;20358;-65
2022/03/18 01:27:05;;;;;;;11.70;4.03;;;8.30;99.90;;;;;;5055243;28;20029;-65
2022/03/18 01:29:31;;;;;;;9.90;4.15;;;8.20;99.90;;;;;;5056426;28;20477;-64
2022/03/18 01:31:57;;;;;;;;;;;8.20;99.90;;;;;;5057311;28;20037;-64
2022/03/18 01:34:23;;;;;;;6.82;3.13;;;8.20;99.90;;;;;;5080291;22;20332;-59
2022/03/18 01:36:49;;;;;;;7.93;4.10;;;8.20;99.90;;;;;;5055351;28;20052;-57
2022/03/18 01:39:15;;;;;;;14.75;4.03;;;8.20;99.90;;;;;;5054550;28;20025;-55
2022/03/18 01:41:41;;;;;;;14.90;4.32;;;8.20;99.90;;;;;;5054267;28;20032;-55
2022/03/18 01:44:12;;;;;;;10.60;3.45;;;8.20;99.90;;;;;;5054523;28;20017;-59
2022/03/18 01:46:38;;;;;;;12.77;3.90;;;8.20;99.90;;;;;;5053091;28;20029;-59
2022/03/18 01:49:07;;;;;;;14.88;4.22;;;8.20;99.90;;;;;;5054747;28;20036;-57
2022/03/18 01:51:34;;;;;;;7.90;3.58;;;8.20;99.90;;;;;;5054085;28;20037;-59
2022/03/18 01:56:44;;;;;;;9.77;3.30;;;8.20;99.90;;;;;;5054533;28;20381;-57
2022/03/18 01:59:13;;;;;;;12.13;3.92;;;8.10;99.90;;;;;;5054182;28;20025;-61
2022/03/18 02:01:39;;;;;;;7.43;3.25;;;8.10;99.90;;;;;;5054061;28;20160;-58
2022/03/18 02:04:05;;;;;;;10.13;3.50;;;8.20;99.90;;;;;;5054038;28;20087;-57
2022/03/18 02:06:32;;;;;;;9.77;3.80;;;8.10;99.90;;;;;;5053744;28;20036;-57
2022/03/18 02:08:58;;;;;;;14.75;4.38;;;8.10;99.90;;;;;;5054457;28;20025;-59
2022/03/18 02:11:25;;;;;;;7.75;3.72;;;8.10;99.90;;;;;;5052251;28;20044;-57
2022/03/18 02:13:52;;;;;;;8.35;4.07;;;8.10;99.90;;;;;;5053436;28;20078;-60
2022/03/18 02:16:18;;;;;;;8.80;3.80;;;8.10;99.90;;;;;;5053550;28;20082;-58
2022/03/18 02:18:44;;;;;;;12.82;3.72;;;8.00;99.90;;;;;;5053558;28;20037;-59
2022/03/18 02:21:13;;;;;;;22.40;4.57;;;8.00;99.90;;;;;;5054261;28;20417;-59
2022/03/18 02:23:40;;;;;;;7.68;4.03;;;8.00;99.90;;;;;;5053691;28;20432;-59
2022/03/18 02:26:05;;;;;;;14.48;4.03;;;8.00;99.90;;;;;;5053696;28;20082;-57
2022/03/18 02:28:31;;;;;;;11.03;3.87;;;8.00;99.90;;;;;;5053851;28;20029;-59
2022/03/18 02:30:56;;;;;;;11.50;4.13;;;7.90;99.90;;;;;;5053282;28;20036;-60
2022/03/18 02:33:22;;;;;;;14.83;4.10;;;7.90;99.90;;;;;;5051752;28;20036;-60
2022/03/18 02:35:53;;;;;;;10.37;3.57;;;7.90;99.90;;;;;;5051939;28;20123;-59
2022/03/18 02:38:19;;;;;;;10.43;4.25;;;7.90;99.90;;;;;;5053612;28;20420;-60
2022/03/18 02:40:44;;;;;;;9.50;3.87;;;7.90;99.90;;;;;;5053372;28;20035;-61
2022/03/18 02:43:10;;;;;;;12.17;3.70;;;7.90;99.90;;;;;;5053224;28;20098;-61
2022/03/18 02:45:36;;;;;;;10.83;3.73;;;7.90;99.90;;;;;;5052879;28;20025;-56
2022/03/18 02:48:01;;;;;;;10.17;4.10;;;7.90;99.90;;;;;;5053272;28;20474;-60
2022/03/18 02:50:27;;;;;;;10.67;3.97;;;7.90;99.90;;;;;;5053914;28;20040;-54
2022/03/18 02:52:52;;;;;;;6.63;3.30;;;7.90;99.90;;;;;;5056857;28;20025;-57
2022/03/18 02:55:18;;;;;;;10.20;4.20;;;7.90;99.90;;;;;;5056997;28;20103;-58
2022/03/18 02:57:44;;;;;;;6.13;3.40;;;7.80;99.90;;;;;;5055867;28;20470;-58
2022/03/18 03:00:10;;;;;;;13.32;3.90;;;7.80;99.90;;;;;;5057075;28;20029;-59
2022/03/18 03:02:36;;;;;;;10.02;3.67;;;7.80;99.90;;;;;;5056833;28;20492;-59
2022/03/18 03:07:59;;;;;;;11.18;4.03;;;7.80;99.90;;;;;;5059164;28;20082;-59
2022/03/18 03:10:29;;;;;;;13.00;4.22;;;7.80;99.90;;;;;;5058674;28;20033;-59
2022/03/18 03:12:59;;;;;;;7.13;3.40;;;7.80;99.90;;;;;;5059355;28;20346;-59
2022/03/18 03:15:26;;;;;;;7.38;3.15;;;7.80;99.90;;;;;;5058181;28;20036;-59
2022/03/18 03:17:52;;;;;;;10.30;3.80;;;7.80;99.90;;;;;;5058468;28;20079;-60
2022/03/18 03:20:17;;;;;;;14.30;3.93;;;7.80;99.90;;;;;;5058227;28;20025;-60
2022/03/18 03:22:43;;;;;;;9.27;3.33;;;7.80;99.90;;;;;;5057016;28;20447;-58
2022/03/18 03:25:09;;;;;;;8.73;3.30;;;7.80;99.90;;;;;;5056621;28;20515;-59
2022/03/18 03:27:35;;;;;;;11.40;3.80;;;7.80;99.90;;;;;;5057509;28;20021;-59
2022/03/18 03:30:04;;;;;;;6.53;3.30;;;7.70;99.90;;;;;;5057316;28;20271;-58
2022/03/18 03:32:29;;;;;;;11.60;3.22;;;7.70;99.90;;;;;;5057998;28;20647;-60
2022/03/18 03:34:57;;;;;;;10.03;3.50;;;7.70;99.90;;;;;;5056505;28;20036;-59
2022/03/18 03:37:22;;;;;;;9.38;3.70;;;7.70;99.90;;;;;;5057384;28;20426;-60
2022/03/18 03:39:48;;;;;;;12.30;3.30;;;7.70;99.90;;;;;;5058626;28;20021;-60
2022/03/18 03:42:14;;;;;;;10.43;3.10;;;7.70;99.90;;;;;;5058221;28;20025;-59
2022/03/18 03:44:39;;;;;;;10.23;3.13;;;7.70;99.90;;;;;;5057024;28;20299;-56
2022/03/18 03:47:05;;;;;;;11.70;3.80;;;7.70;99.90;;;;;;5056528;28;20070;-60
2022/03/18 03:49:30;;;;;;;7.73;2.87;;;7.70;99.90;;;;;;5056409;28;20028;-60
2022/03/18 03:51:56;;;;;;;10.70;3.30;;;7.70;99.90;;;;;;5055229;28;20066;-59
2022/03/18 03:54:22;;;;;;;17.13;3.57;;;7.70;99.90;;;;;;5064582;28;20040;-60
2022/03/18 03:56:47;;;;;;;7.00;3.17;;;7.60;99.90;;;;;;5068407;28;20033;-59
2022/03/18 03:59:12;;;;;;;8.97;2.93;;;7.70;99.90;;;;;;5064570;28;20082;-57
2022/03/18 04:01:38;;;;;;;16.53;3.70;;;7.60;99.90;;;;;;5053901;28;20083;-58
2022/03/18 04:04:04;;;;;;;10.45;3.10;;;7.60;99.90;;;;;;5054197;28;20025;-60
2022/03/18 04:06:30;;;;;;;5.38;2.90;;;7.60;99.90;;;;;;5054500;28;20049;-57
2022/03/18 04:08:56;;;;;;;7.00;2.58;;;7.60;99.90;;;;;;5055808;28;20390;-59
2022/03/18 04:11:21;;;;;;;11.03;4.13;;;7.60;99.90;;;;;;5056393;28;20032;-60
2022/03/18 04:13:47;;;;;;;15.27;3.53;;;7.60;99.90;;;;;;5056572;28;20029;-61
2022/03/18 04:16:13;;;;;;;8.73;3.30;;;7.60;99.90;;;;;;5058061;28;20051;-58
2022/03/18 04:18:38;;;;;;;12.20;3.63;;;7.60;99.90;;;;;;5056417;28;20044;-61
2022/03/18 04:21:04;;;;;;;10.37;4.10;;;7.60;99.90;;;;;;5055986;28;20087;-55
2022/03/18 04:23:29;;;;;;;9.47;3.70;;;7.60;99.90;;;;;;5055743;28;20116;-62
2022/03/18 04:25:55;;;;;;;10.83;3.50;;;7.60;99.90;;;;;;5056473;28;20033;-61
2022/03/18 04:28:20;;;;;;;9.70;3.57;;;7.60;99.90;;;;;;5056564;28;20053;-63
2022/03/18 04:30:46;;;;;;;10.97;3.57;;;7.60;99.90;;;;;;5055743;28;20021;-60
2022/03/18 04:33:11;;;;;;;14.50;3.53;;;7.50;99.90;;;;;;5055438;28;20044;-61
2022/03/18 04:35:37;;;;;;;9.97;3.53;;;7.60;99.90;;;;;;5054157;28;20025;-55
2022/03/18 04:38:02;;;;;;;10.77;3.57;;;7.50;99.90;;;;;;5055337;28;20103;-62
2022/03/18 04:40:28;;;;;;;9.93;3.20;;;7.50;99.90;;;;;;5056009;28;20112;-61
2022/03/18 04:42:54;;;;;;;11.30;4.07;;;7.50;99.90;;;;;;5056144;28;20478;-61
2022/03/18 04:45:19;;;;;;;11.63;4.10;;;7.50;99.90;;;;;;5054071;28;20031;-61
2022/03/18 04:47:45;;;;;;;9.30;3.00;;;7.60;99.90;;;;;;5055351;28;20370;-61
2022/03/18 04:50:11;;;;;;;13.00;4.07;;;7.60;99.90;;;;;;5053985;28;20370;-60
2022/03/18 04:52:37;;;;;;;10.10;3.65;;;7.60;99.90;;;;;;5054924;28;20029;-60
2022/03/18 04:55:05;;;;;;;11.07;4.20;;;7.60;99.90;;;;;;5055494;28;20170;-62
2022/03/18 04:57:31;;;;;;;12.70;4.15;;;7.50;99.90;;;;;;5055712;28;20132;-62
2022/03/18 04:59:57;;;;;;;12.20;3.88;;;7.50;99.90;;;;;;5053648;28;20029;-60
2022/03/18 05:02:28;;;;;;;10.77;3.72;;;7.50;99.90;;;;;;5055861;28;20458;-61
2022/03/18 05:04:54;;;;;;;15.65;4.15;;;7.50;99.90;;;;;;5054977;28;20021;-60
2022/03/18 05:07:20;;;;;;;9.57;3.70;;;7.50;99.90;;;;;;5054683;28;20048;-60
2022/03/18 05:09:46;;;;;;;14.90;3.83;;;7.50;99.90;;;;;;5054534;28;20029;-61
2022/03/18 05:12:13;;;;;;;;;;;7.50;99.90;;;;;;5055028;28;20317;-61
2022/03/18 05:14:40;;;;;;;12.17;3.87;;;7.50;99.90;;;;;;5053844;28;20336;-61
2022/03/18 05:17:06;;;;;;;;;;;7.50;99.90;;;;;;5055048;28;20127;-60
2022/03/18 05:19:31;;;;;;;12.45;3.90;;;7.50;99.90;;;;;;5054219;28;19905;-61
2022/03/18 05:21:57;;;;;;;13.13;3.87;;;7.40;99.90;;;;;;5053292;28;20032;-60
2022/03/18 05:24:25;;;;;;;10.10;3.93;;;7.40;99.90;;;;;;5054762;28;20021;-58
2022/03/18 05:26:51;;;;;;;11.05;3.63;;;7.40;99.90;;;;;;5056955;28;20017;-59
2022/03/18 05:29:17;;;;;;;13.38;5.38;;;7.40;99.90;;;;;;5056488;28;20032;-58
2022/03/18 05:31:43;;;;;;;9.87;3.80;;;7.40;99.90;;;;;;5054914;28;20029;-62
2022/03/18 05:34:09;;;;;;;10.77;3.72;;;7.40;99.90;;;;;;5053697;28;20041;-61
2022/03/18 05:36:34;;;;;;;10.95;3.42;;;7.40;99.90;;;;;;5058410;28;20033;-62
2022/03/18 05:39:00;;;;;;;9.47;3.80;;;7.40;99.90;;;;;;5059714;28;20025;-62
2022/03/18 05:44:01;;;;;;;10.60;3.70;;;7.40;99.90;;;;;;5221382;22;20045;-64
2022/03/18 05:46:27;;;;;;;10.95;3.22;;;7.40;99.90;;;;;;5055576;28;20025;-65
2022/03/18 05:48:53;;;;;;;9.80;4.13;;;7.40;99.90;;;;;;5054260;28;20033;-62
2022/03/18 05:51:18;;;;;;;9.52;3.85;;;7.50;99.90;;;;;;5053213;28;20267;-64
2022/03/18 05:53:44;;;;;;;13.80;4.53;;;7.40;99.90;;;;;;5055427;28;20033;-63
2022/03/18 05:58:55;;;;;;;10.40;4.22;;;7.40;99.90;;;;;;5066557;28;20085;-63
2022/03/18 06:01:20;;;;;;;13.30;4.07;;;7.40;99.90;;;;;;5064442;28;20021;-62
2022/03/18 06:03:48;;;;;;;13.80;4.17;;;7.40;99.90;;;;;;5057400;28;20110;-63
2022/03/18 06:06:14;;;;;;;16.15;4.60;;;7.40;99.90;;;;;;5055552;28;20025;-63
2022/03/18 06:14:08;;;;;;;14.30;4.75;;;7.40;99.90;;;;;;5054665;28;20364;-62
2022/03/18 06:16:33;;;;;;;17.47;4.73;;;7.40;99.90;;;;;;5053367;28;20112;-63
2022/03/18 06:18:59;;;;;;;11.70;4.87;;;7.30;99.90;;;;;;5054406;28;20036;-63
2022/03/18 06:21:24;;;;;;;13.57;4.60;;;7.30;99.90;;;;;;5052799;28;20032;-61
2022/03/18 06:23:50;;;;;;;11.47;5.23;;;7.20;99.90;;;;;;5054216;28;20076;-60
2022/03/18 06:26:15;;;;;;;14.53;4.57;;;7.30;99.90;;;;;;5052166;28;20029;-63
2022/03/18 06:28:41;;;;;;;10.30;4.50;;;7.30;99.90;;;;;;5053205;28;20017;-63
2022/03/18 06:31:07;;;;;;;13.97;7.00;;;7.20;99.90;;;;;;5052503;28;20033;-63
2022/03/18 06:33:43;;;;;;;14.30;5.07;;;7.30;99.90;;;;;;5053416;28;20060;-62
2022/03/18 06:36:09;;;;;;;15.18;4.68;;;7.30;99.90;;;;;;5054321;28;20268;-62
2022/03/18 06:38:35;;;;;;;17.42;5.25;;;7.40;99.90;;;;;;5053594;28;20397;-62
2022/03/18 06:41:00;;;;;;;12.67;4.23;;;7.40;99.90;;;;;;5053417;28;20025;-62
2022/03/18 06:43:26;;;;;;;19.83;5.67;;;7.40;99.90;;;;;;5053597;28;20263;-63
2022/03/18 06:45:51;;;;;;;12.57;5.63;;;7.50;99.90;;;;;;5051845;28;20036;-63
2022/03/18 06:48:17;;;;;;;18.27;5.27;;;7.50;99.90;;;;;;5051930;28;20024;-64
2022/03/18 06:50:42;;;;;;;13.83;5.47;;;7.50;99.90;;;;;;5053762;28;20079;-63
2022/03/18 06:53:08;;;;;;;16.70;4.70;;;7.50;99.90;;;;;;5053845;28;20104;-64
2022/03/18 06:55:35;;;;;;;16.73;5.47;;;7.50;99.90;;;;;;5053390;28;20032;-63
2022/03/18 06:58:01;;;;;;;15.30;5.18;;;7.50;99.90;;;;;;5053753;28;20072;-62
2022/03/18 07:00:26;;;;;;;13.17;5.30;;;7.50;99.90;;;;;;5053641;28;20469;-62
2022/03/18 07:02:52;;;;;;;13.97;5.50;;;7.60;99.90;;;;;;5053540;28;20272;-61
2022/03/18 07:05:18;;;;;;;14.27;4.88;;;7.60;99.90;;;;;;5054017;28;20029;-62
2022/03/18 07:07:43;;;;;;;13.17;4.17;;;7.60;99.90;;;;;;5053565;28;20086;-61
2022/03/18 07:10:12;;;;;;;15.67;5.03;;;7.60;99.90;;;;;;5053337;28;20044;-63
2022/03/18 07:12:38;;;;;;;16.15;4.93;;;7.70;99.90;;;;;;5053038;28;20056;-62
2022/03/18 07:15:05;;;;;;;12.18;5.43;;;7.70;99.90;;;;;;5052813;28;20379;-62
2022/03/18 07:20:14;;;;;;;16.00;5.28;;;7.70;99.90;;;;;;5054030;28;20500;-63
2022/03/18 07:22:41;;;;;;;13.53;4.73;;;7.60;99.90;;;;;;5054973;28;20025;-61
2022/03/18 07:25:07;;;;;;;14.85;4.60;;;7.70;99.90;;;;;;5054418;28;20134;-62
2022/03/18 07:27:33;;;;;;;12.48;4.65;;;7.70;99.90;;;;;;5053866;28;20036;-63
2022/03/18 07:29:58;;;;;;;10.73;4.40;;;7.70;99.90;;;;;;5053751;28;20386;-61
2022/03/18 07:32:24;;;;;;;10.03;4.97;;;7.80;99.90;;;;;;5052289;28;20017;-62
2022/03/18 07:34:49;;;;;;;15.03;5.10;;;7.80;99.90;;;;;;5052786;28;20021;-62
2022/03/18 07:37:15;;;;;;;11.73;4.63;;;7.80;99.90;;;;;;5055256;28;20366;-62
2022/03/18 07:39:41;;;;;;;14.10;5.60;;;7.90;99.90;;;;;;5058357;28;20388;-62
2022/03/18 07:42:06;;;;;;;17.13;5.23;;;7.90;99.90;;;;;;5058740;28;20295;-61
2022/03/18 07:44:34;;;;;;;17.05;5.25;;;8.00;99.90;;;;;;5059141;28;20028;-64
2022/03/18 07:47:00;;;;;;;13.27;4.35;;;8.00;99.90;;;;;;5058605;28;20033;-65
2022/03/18 07:49:26;;;;;;;11.70;4.63;;;8.10;99.90;;;;;;5057660;28;20580;-62
2022/03/18 07:51:51;;;;;;;10.60;4.80;;;8.00;99.90;;;;;;5059717;28;20260;-63
2022/03/18 07:54:17;;;;;;;10.43;4.73;;;8.00;99.90;;;;;;5060151;28;20029;-62
2022/03/18 07:56:42;;;;;;;17.77;6.17;;;8.00;99.90;;;;;;5059004;28;20100;-63
2022/03/18 07:59:08;;;;;;;14.70;5.33;;;8.10;99.90;;;;;;5056166;28;20043;-63
2022/03/18 08:01:35;;;;;;;10.50;4.20;;;8.10;99.90;;;;;;5056000;28;20025;-62
2022/03/18 08:04:00;;;;;;;9.52;4.90;;;8.20;99.90;;;;;;5057401;28;20376;-63
2022/03/18 08:06:26;;;;;;;12.90;5.20;;;8.20;99.90;;;;;;5057820;28;20017;-61
2022/03/18 08:08:52;;;;;;;11.70;4.87;;;8.30;99.90;;;;;;5057933;28;20028;-63
2022/03/18 08:11:17;;;;;;;10.57;4.43;;;8.30;99.90;;;;;;5058147;28;20041;-63
2022/03/18 08:13:45;;;;;;;12.10;4.50;;;8.20;99.90;;;;;;5058705;28;20021;-63
2022/03/18 08:16:13;;;;;;;18.05;6.07;;;8.20;99.90;;;;;;5059198;28;20255;-63
2022/03/18 08:18:38;;;;;;;15.60;5.25;;;8.20;99.90;;;;;;5056565;28;20090;-65
2022/03/18 08:21:04;;;;;;;12.13;5.13;;;8.20;99.90;;;;;;5056566;28;20474;-62
2022/03/18 08:23:32;;;;;;;17.90;6.00;;;8.10;99.90;;;;;;5055813;28;20067;-62
2022/03/18 08:25:57;;;;;;;18.05;5.88;;;8.20;99.90;;;;;;5055822;28;20025;-63
2022/03/18 08:28:23;;;;;;;19.50;5.63;;;8.20;99.90;;;;;;5055915;28;20470;-64
2022/03/18 08:30:49;;;;;;;15.10;4.93;;;8.30;99.90;;;;;;5055994;28;20021;-64
2022/03/18 08:33:14;;;;;;;10.10;5.00;;;8.30;99.90;;;;;;5055747;28;20489;-62
2022/03/18 08:35:41;;;;;;;17.23;5.67;;;8.30;99.90;;;;;;5055591;28;20033;-63
2022/03/18 08:38:09;;;;;;;12.20;5.03;;;8.40;99.90;;;;;;5055698;28;20021;-64
2022/03/18 08:40:36;;;;;;;14.80;5.95;;;8.40;99.90;;;;;;5055410;28;20025;-64
2022/03/18 08:43:05;;;;;;;;;;;8.50;99.90;;;;;;5055885;28;20118;-61
2022/03/18 08:45:31;;;;;;;10.52;5.40;;;8.50;99.90;;;;;;5055043;28;19919;-64
2022/03/18 08:47:57;;;;;;;19.30;6.13;;;8.60;99.90;;;;;;5055082;28;20034;-64
2022/03/18 08:50:24;;;;;;;15.95;6.28;;;8.70;99.90;;;;;;5056094;28;20029;-65
2022/03/18 08:52:54;;;;;;;13.40;5.43;;;8.80;99.90;;;;;;5054227;28;20115;-64
2022/03/18 08:55:21;;;;;;;14.85;5.82;;;8.90;99.90;;;;;;5055562;28;20021;-64
2022/03/18 08:57:46;;;;;;;;;;;8.90;99.90;;;;;;5055733;28;20021;-63
2022/03/18 09:00:17;;;;;;;17.95;6.22;;;8.90;99.90;;;;;;5055515;28;20011;-61
2022/03/18 09:02:45;;;;;;;12.07;6.07;;;8.90;99.90;;;;;;5055297;28;20013;-62
2022/03/18 09:05:12;;;;;;;12.13;5.55;;;9.00;99.90;;;;;;5055774;28;20480;-62
2022/03/18 09:07:38;;;;;;;15.35;6.60;;;9.00;99.90;;;;;;5055169;28;20508;-64
2022/03/18 09:10:08;;;;;;;;;;;9.10;99.90;;;;;;5055758;28;20032;-65
2022/03/18 09:12:34;;;;;;;15.75;6.28;;;9.10;99.90;;;;;;5054743;28;20008;-64
2022/03/18 09:15:02;;;;;;;15.37;6.20;;;9.20;99.90;;;;;;5055575;28;20473;-65
2022/03/18 09:17:28;;;;;;;28.02;6.43;;;9.20;99.90;;;;;;5055211;28;20036;-65
2022/03/18 09:19:53;;;;;;;16.07;6.70;;;9.30;99.90;;;;;;5054926;28;20029;-63
2022/03/18 09:22:19;;;;;;;15.47;5.73;;;9.30;99.90;;;;;;5055236;28;20158;-65
2022/03/18 09:24:46;;;;;;;12.77;5.40;;;9.40;99.90;;;;;;5054977;28;20047;-62
2022/03/18 09:27:14;;;;;;;17.30;6.00;;;9.50;99.90;;;;;;5055170;28;20025;-62
2022/03/18 09:29:40;;;;;;;12.85;6.28;;;9.70;99.90;;;;;;5055120;28;20017;-63
2022/03/18 09:32:06;;;;;;;15.27;5.45;;;9.70;99.90;;;;;;5054787;28;20044;-63
2022/03/18 09:34:32;;;;;;;;;;;9.80;99.90;;;;;;5055066;28;20063;-62
2022/03/18 09:36:58;;;;;;;12.10;5.82;;;9.80;99.90;;;;;;5054535;28;19920;-64
2022/03/18 09:39:25;;;;;;;19.77;7.07;;;9.80;99.90;;;;;;5055106;28;20056;-64
2022/03/18 09:41:52;;;;;;;15.30;7.25;;;9.90;99.90;;;;;;5054134;28;20104;-64
2022/03/18 09:44:18;;;;;;;13.13;6.68;;;9.90;99.90;;;;;;5054259;28;20021;-64
2022/03/18 09:46:47;;;;;;;17.97;7.07;;;10.00;99.90;;;;;;5053877;28;20101;-63
2022/03/18 09:49:19;;;;;;;13.82;7.03;;;10.00;99.90;;;;;;5054655;28;20094;-64
2022/03/18 09:51:47;;;;;;;15.70;7.57;;;9.90;99.90;;;;;;5054623;28;20071;-60
2022/03/18 09:54:13;;;;;;;17.58;8.15;;;9.90;99.90;;;;;;5052610;28;20033;-62
2022/03/18 09:56:41;;;;;;;14.68;8.10;;;9.80;99.90;;;;;;5054080;28;20025;-62
2022/03/18 09:59:07;;;;;;;15.40;7.68;;;9.80;99.90;;;;;;5054276;28;20055;-59
2022/03/18 10:01:33;;;;;;;15.73;9.20;;;9.70;99.90;;;;;;5053666;28;20025;-63
2022/03/18 10:04:12;;;;;;;16.80;9.40;;;9.80;99.90;;;;;;5053692;28;20025;-62
2022/03/18 10:06:42;;;;;;;22.63;9.48;;;9.70;99.90;;;;;;5053641;28;20059;-62
2022/03/18 10:09:09;;;;;;;21.90;9.77;;;9.80;99.90;;;;;;5052029;28;20413;-64
2022/03/18 10:11:37;;;;;;;19.17;9.65;;;9.80;99.90;;;;;;5053436;28;20492;-62
2022/03/18 10:14:12;;;;;;;22.10;10.48;;;9.80;99.90;;;;;;5053336;28;20024;-61
2022/03/18 10:16:46;;;;;;;21.67;11.20;;;9.80;99.90;;;;;;5053325;28;20040;-61
2022/03/18 10:19:23;;;;;;;20.35;11.05;;;9.80;99.90;;;;;;5053058;28;20451;-63
2022/03/18 10:21:59;;;;;;;18.88;10.18;;;9.90;99.90;;;;;;5053121;28;20025;-63
2022/03/18 10:24:29;;;;;;;21.13;12.52;;;10.10;99.90;;;;;;5053498;28;20087;-59
2022/03/18 10:27:13;;;;;;;24.35;12.90;;;10.10;99.90;;;;;;5053139;28;20017;-61
2022/03/18 10:29:40;;;;;;;27.10;13.55;;;10.10;99.90;;;;;;5053351;28;20017;-64
2022/03/18 10:32:06;;;;;;;22.73;13.18;;;10.20;99.90;;;;;;5053844;28;20100;-64
2022/03/18 10:37:25;;;;;;;23.42;13.95;;;10.40;99.90;;;;;;5053482;28;20040;-65
2022/03/18 10:39:58;;;;;;;25.13;14.15;;;10.40;99.90;;;;;;5053226;28;20100;-63
2022/03/18 10:42:24;;;;;;;22.00;13.18;;;10.70;99.90;;;;;;5053153;28;20090;-66
2022/03/18 10:44:59;;;;;;;23.70;12.70;;;10.70;99.90;;;;;;5052920;28;20029;-62
2022/03/18 10:47:30;;;;;;;24.35;12.73;;;10.60;99.90;;;;;;5053385;28;20271;-62
2022/03/18 10:50:11;;;;;;;26.70;14.43;;;10.60;99.90;;;;;;5053158;28;20055;-63
2022/03/18 10:52:40;;;;;;;23.75;14.32;;;10.80;99.90;;;;;;5052554;28;20450;-63
2022/03/18 10:55:36;;;;;;;24.38;13.55;;;10.80;99.90;;;;;;5060386;28;20419;-63
2022/03/18 10:58:03;;;;;;;23.35;13.00;;;10.90;99.90;;;;;;5047669;28;20199;-62
2022/03/18 11:00:31;;;;;;;25.25;15.10;;;11.10;99.90;;;;;;5051171;28;20040;-61
2022/03/18 11:02:59;;;;;;;25.20;14.50;;;11.30;99.90;;;;;;5052672;28;20021;-63
2022/03/18 11:05:26;;;;;;;26.83;14.63;;;11.80;99.90;;;;;;5051564;28;20028;-63
2022/03/18 11:07:54;;;;;;;26.13;15.32;;;11.90;99.90;;;;;;5052634;28;20017;-65
2022/03/18 11:13:06;;;;;;;27.30;15.85;;;11.90;99.90;;;;;;5058918;28;20374;-63
2022/03/18 11:15:33;;;;;;;;;;;11.80;99.90;;;;;;5059235;28;20025;-63
2022/03/18 11:18:03;;;;;;;32.13;16.30;;;11.60;99.90;;;;;;5059044;28;20043;-62
2022/03/18 11:20:32;;;;;;;25.80;14.80;;;11.50;99.90;;;;;;5057000;28;20283;-63
2022/03/18 11:22:58;;;;;;;26.42;15.40;;;11.40;99.90;;;;;;5056666;28;20045;-62
2022/03/18 11:25:25;;;;;;;27.08;13.98;;;11.50;99.90;;;;;;5056766;28;20094;-63
2022/03/18 11:27:52;;;;;;;26.42;14.57;;;11.40;99.90;;;;;;5056789;28;20074;-60
2022/03/18 11:30:31;;;;;;;24.77;14.13;;;11.50;99.90;;;;;;5056948;28;20013;-61
2022/03/18 11:33:06;;;;;;;26.38;15.00;;;11.40;99.90;;;;;;5058070;28;20032;-63
2022/03/18 11:35:50;;;;;;;28.23;15.05;;;11.50;99.90;;;;;;5055400;28;20334;-61
2022/03/18 11:38:17;;;;;;;24.55;12.70;;;11.40;99.90;;;;;;5059678;28;20392;-64
2022/03/18 11:41:00;;;;;;;30.40;15.27;;;11.40;99.90;;;;;;5059186;28;20025;-62
2022/03/18 11:43:43;;;;;;;26.38;15.02;;;11.60;99.90;;;;;;5057518;28;20021;-61
2022/03/18 11:46:19;;;;;;;27.38;14.98;;;11.70;99.90;;;;;;5059480;28;20060;-63
2022/03/18 11:48:51;;;;;;;24.80;14.18;;;11.90;99.90;;;;;;5057710;28;20021;-62
2022/03/18 11:51:34;;;;;;;24.17;13.75;;;12.10;99.90;;;;;;5057990;28;20025;-63
2022/03/18 11:54:05;;;;;;;23.50;12.80;;;12.10;99.90;;;;;;5057921;28;20096;-62
2022/03/18 11:56:44;;;;;;;24.33;13.77;;;12.30;99.90;;;;;;5058439;28;20017;-64
2022/03/18 11:59:25;;;;;;;24.90;13.07;;;12.10;99.90;;;;;;5059075;28;20413;-61
2022/03/18 12:01:55;;;;;;;26.02;14.70;;;12.00;99.90;;;;;;5056897;28;20025;-62
2022/03/18 12:04:47;;;;;;;24.52;13.05;;;12.00;99.90;;;;;;5056165;28;20031;-60
2022/03/18 12:07:27;;;;;;;24.05;12.93;;;12.00;99.90;;;;;;5056862;28;20048;-62
2022/03/18 12:09:55;;;;;;;21.77;12.52;;;12.10;99.90;;;;;;5055880;28;20029;-62
2022/03/18 12:12:24;;;;;;;20.45;11.98;;;12.30;99.90;;;;;;5055534;28;20105;-59
2022/03/18 12:14:51;;;;;;;21.58;12.50;;;12.30;99.90;;;;;;5055474;28;20489;-61
2022/03/18 12:17:17;;;;;;;26.80;14.70;;;12.50;99.90;;;;;;5055775;28;20045;-63
2022/03/18 12:19:59;;;;;;;27.55;15.30;;;12.40;99.90;;;;;;5055751;28;20121;-62
2022/03/18 12:22:28;;;;;;;26.48;14.32;;;12.50;99.90;;;;;;5056209;28;20025;-59
2022/03/18 12:24:56;;;;;;;27.27;15.35;;;12.50;99.90;;;;;;5053214;28;20029;-60
2022/03/18 12:27:36;;;;;;;24.05;14.52;;;12.50;99.90;;;;;;5055537;28;20117;-60
2022/03/18 12:30:23;;;;;;;23.70;13.23;;;12.60;99.90;;;;;;5055718;28;20395;-58
2022/03/18 12:32:58;;;;;;;24.63;13.57;;;12.60;99.90;;;;;;5055451;28;20082;-61
2022/03/18 12:35:29;;;;;;;26.92;14.35;;;12.70;99.90;;;;;;5055590;28;20270;-59
2022/03/18 12:38:08;;;;;;;24.27;13.82;;;12.60;99.90;;;;;;5055375;28;20074;-60
2022/03/18 12:40:36;;;;;;;30.17;15.63;;;12.60;99.90;;;;;;5055316;28;20032;-59
2022/03/18 12:43:03;;;;;;;25.83;14.68;;;12.50;99.90;;;;;;5055377;28;20475;-59
2022/03/18 12:45:34;;;;;;;25.08;14.57;;;12.40;99.90;;;;;;5055922;28;20116;-60
2022/03/18 12:48:02;;;;;;;26.50;15.15;;;12.40;99.90;;;;;;5057824;28;20120;-60
2022/03/18 12:50:31;;;;;;;26.10;14.07;;;12.20;99.90;;;;;;5058892;28;20020;-61
2022/03/18 12:52:57;;;;;;;27.60;14.43;;;11.90;99.90;;;;;;5057141;28;20044;-60
2022/03/18 12:55:24;;;;;;;26.65;14.00;;;11.90;99.90;;;;;;5058151;28;20048;-62
2022/03/18 12:57:50;;;;;;;24.13;12.82;;;11.90;99.90;;;;;;5057915;28;20535;-61
2022/03/18 13:00:17;;;;;;;;;;;12.00;99.90;;;;;;5057874;28;20045;-62
2022/03/18 13:02:44;;;;;;;23.13;13.30;;;12.00;99.90;;;;;;5055883;28;19904;-60
2022/03/18 13:05:15;;;;;;;26.92;14.15;;;12.00;99.90;;;;;;5055168;28;20025;-58
2022/03/18 13:07:41;;;;;;;28.48;14.02;;;12.00;99.90;;;;;;5056723;28;20474;-60
2022/03/18 13:10:07;;;;;;;22.63;12.95;;;11.90;99.90;;;;;;5056279;28;20029;-62
2022/03/18 13:12:36;;;;;;;;;;;11.90;99.90;;;;;;5057608;28;20021;-61
2022/03/18 13:15:15;;;;;;;27.38;13.63;;;11.80;99.90;;;;;;5056919;28;19971;-60
2022/03/18 13:17:41;;;;;;;28.50;14.30;;;11.90;99.90;;;;;;5057201;28;20029;-59
2022/03/18 13:20:24;;;;;;;23.98;14.07;;;11.80;99.90;;;;;;5056568;28;20101;-59